sensor_id;sensor_type;location;lat;lon;timestamp;temperature;humidity
19044;DHT22;9654;52.302;8.120;2024-03-07T00:00:46;3.30;99.90
19044;DHT22;9654;52.302;8.120;2024-03-07T00:03:14;3.20;99.90
19044;DHT22;9654;52.302;8.120;2024-03-07T00:05:42;3.20;99.90
19044;DHT22;9654;52.302;8.120;2024-03-07T00:08:09;3.30;99.90
19044;DHT22;9654;52.302;8.120;2024-03-07T00:10:36;3.20;99.90
19044;DHT22;9654;52.302;8.120;2024-03-07T00:13:03;3.20;99.90
19044;DHT22;9654;52.302;8.120;2024-03-07T00:15:32;3.20;99.90
19044;DHT22;9654;52.302;8.120;2024-03-07T00:17:58;3.20;99.90
19044;DHT22;9654;52.302;8.120;2024-03-07T00:20:26;3.10;99.90
19044;DHT22;9654;52.302;8.120;2024-03-07T00:22:53;3.10;99.90
19044;DHT22;9654;52.302;8.120;2024-03-07T00:25:20;3.10;99.90
19044;DHT22;9654;52.302;8.120;2024-03-07T00:27:47;3.10;99.90
19044;DHT22;9654;52.302;8.120;2024-03-07T00:30:17;3.00;99.90
19044;DHT22;9654;52.302;8.120;2024-03-07T00:32:47;3.00;99.90
19044;DHT22;9654;52.302;8.120;2024-03-07T00:35:14;3.00;99.90
19044;DHT22;9654;52.302;8.120;2024-03-07T00:37:44;2.90;99.90
19044;DHT22;9654;52.302;8.120;2024-03-07T00:40:11;2.90;99.90
19044;DHT22;9654;52.302;8.120;2024-03-07T00:42:38;2.90;99.90
19044;DHT22;9654;52.302;8.120;2024-03-07T00:45:06;2.80;99.90
19044;DHT22;9654;52.302;8.120;2024-03-07T00:47:33;2.90;99.90
19044;DHT22;9654;52.302;8.120;2024-03-07T00:50:01;2.80;99.90
19044;DHT22;9654;52.302;8.120;2024-03-07T00:52:28;2.70;99.90
19044;DHT22;9654;52.302;8.120;2024-03-07T00:54:55;2.70;99.90
19044;DHT22;9654;52.302;8.120;2024-03-07T00:57:22;2.70;99.90
19044;DHT22;9654;52.302;8.120;2024-03-07T00:59:49;2.70;99.90
19044;DHT22;9654;52.302;8.120;2024-03-07T01:02:16;2.60;99.90
19044;DHT22;9654;52.302;8.120;2024-03-07T01:04:43;2.60;99.90
19044;DHT22;9654;52.302;8.120;2024-03-07T01:07:12;2.60;99.90
19044;DHT22;9654;52.302;8.120;2024-03-07T01:09:39;2.60;99.90
19044;DHT22;9654;52.302;8.120;2024-03-07T01:12:06;2.50;99.90
19044;DHT22;9654;52.302;8.120;2024-03-07T01:14:35;2.50;99.90
19044;DHT22;9654;52.302;8.120;2024-03-07T01:17:02;2.40;99.90
19044;DHT22;9654;52.302;8.120;2024-03-07T01:19:29;2.40;99.90
19044;DHT22;9654;52.302;8.120;2024-03-07T01:21:56;2.40;99.90
19044;DHT22;9654;52.302;8.120;2024-03-07T01:24:24;2.40;99.90
19044;DHT22;9654;52.302;8.120;2024-03-07T01:26:51;2.30;99.90
19044;DHT22;9654;52.302;8.120;2024-03-07T01:29:18;2.30;99.90
19044;DHT22;9654;52.302;8.120;2024-03-07T01:31:46;2.30;99.90
19044;DHT22;9654;52.302;8.120;2024-03-07T01:34:14;2.30;99.90
19044;DHT22;9654;52.302;8.120;2024-03-07T01:36:41;2.20;99.90
19044;DHT22;9654;52.302;8.120;2024-03-07T01:39:08;2.20;99.90
19044;DHT22;9654;52.302;8.120;2024-03-07T01:41:37;2.20;99.90
19044;DHT22;9654;52.302;8.120;2024-03-07T01:44:06;2.10;99.90
19044;DHT22;9654;52.302;8.120;2024-03-07T01:46:33;2.10;99.90
19044;DHT22;9654;52.302;8.120;2024-03-07T01:49:00;2.00;99.90
19044;DHT22;9654;52.302;8.120;2024-03-07T01:51:27;2.00;99.90
19044;DHT22;9654;52.302;8.120;2024-03-07T01:53:56;2.00;99.90
19044;DHT22;9654;52.302;8.120;2024-03-07T01:56:23;2.00;99.90
19044;DHT22;9654;52.302;8.120;2024-03-07T01:58:52;2.00;99.90
19044;DHT22;9654;52.302;8.120;2024-03-07T02:01:20;2.00;99.90
19044;DHT22;9654;52.302;8.120;2024-03-07T02:03:47;1.90;99.90
19044;DHT22;9654;52.302;8.120;2024-03-07T02:06:14;1.90;99.90
19044;DHT22;9654;52.302;8.120;2024-03-07T02:08:41;1.90;99.90
19044;DHT22;9654;52.302;8.120;2024-03-07T02:11:08;1.80;99.90
19044;DHT22;9654;52.302;8.120;2024-03-07T02:13:35;1.80;99.90
19044;DHT22;9654;52.302;8.120;2024-03-07T02:16:03;1.80;99.90
19044;DHT22;9654;52.302;8.120;2024-03-07T02:18:30;1.80;99.90
19044;DHT22;9654;52.302;8.120;2024-03-07T02:20:59;1.70;99.90
19044;DHT22;9654;52.302;8.120;2024-03-07T02:23:25;1.80;99.90
19044;DHT22;9654;52.302;8.120;2024-03-07T02:25:53;1.70;99.90
19044;DHT22;9654;52.302;8.120;2024-03-07T02:28:20;1.70;99.90
19044;DHT22;9654;52.302;8.120;2024-03-07T02:30:48;1.70;99.90
19044;DHT22;9654;52.302;8.120;2024-03-07T02:33:15;1.70;99.90
19044;DHT22;9654;52.302;8.120;2024-03-07T02:35:41;1.70;99.90
19044;DHT22;9654;52.302;8.120;2024-03-07T02:38:10;1.60;99.90
19044;DHT22;9654;52.302;8.120;2024-03-07T02:40:37;1.60;99.90
19044;DHT22;9654;52.302;8.120;2024-03-07T02:43:04;1.60;99.90
19044;DHT22;9654;52.302;8.120;2024-03-07T02:45:32;1.60;99.90
19044;DHT22;9654;52.302;8.120;2024-03-07T02:47:59;1.60;99.90
19044;DHT22;9654;52.302;8.120;2024-03-07T02:50:26;1.50;99.90
19044;DHT22;9654;52.302;8.120;2024-03-07T02:52:53;1.50;99.90
19044;DHT22;9654;52.302;8.120;2024-03-07T02:55:21;1.50;99.90
19044;DHT22;9654;52.302;8.120;2024-03-07T02:57:48;1.40;99.90
19044;DHT22;9654;52.302;8.120;2024-03-07T03:00:16;1.40;99.90
19044;DHT22;9654;52.302;8.120;2024-03-07T03:02:46;1.40;99.90
19044;DHT22;9654;52.302;8.120;2024-03-07T03:05:14;1.40;99.90
19044;DHT22;9654;52.302;8.120;2024-03-07T03:07:41;1.40;99.90
19044;DHT22;9654;52.302;8.120;2024-03-07T03:10:10;1.40;99.90
19044;DHT22;9654;52.302;8.120;2024-03-07T03:12:41;1.40;99.90
19044;DHT22;9654;52.302;8.120;2024-03-07T03:15:08;1.40;99.90
19044;DHT22;9654;52.302;8.120;2024-03-07T03:17:37;1.40;99.90
19044;DHT22;9654;52.302;8.120;2024-03-07T03:20:05;1.30;99.90
19044;DHT22;9654;52.302;8.120;2024-03-07T03:22:40;1.30;99.90
19044;DHT22;9654;52.302;8.120;2024-03-07T03:25:09;1.30;99.90
19044;DHT22;9654;52.302;8.120;2024-03-07T03:27:36;1.30;99.90
19044;DHT22;9654;52.302;8.120;2024-03-07T03:30:06;1.30;99.90
19044;DHT22;9654;52.302;8.120;2024-03-07T03:32:38;1.30;99.90
19044;DHT22;9654;52.302;8.120;2024-03-07T03:35:06;1.30;99.90
19044;DHT22;9654;52.302;8.120;2024-03-07T03:37:34;1.30;99.90
19044;DHT22;9654;52.302;8.120;2024-03-07T03:40:01;1.30;99.90
19044;DHT22;9654;52.302;8.120;2024-03-07T03:42:30;1.30;99.90
19044;DHT22;9654;52.302;8.120;2024-03-07T03:44:57;1.30;99.90
19044;DHT22;9654;52.302;8.120;2024-03-07T03:47:26;1.30;99.90
19044;DHT22;9654;52.302;8.120;2024-03-07T03:49:53;1.20;99.90
19044;DHT22;9654;52.302;8.120;2024-03-07T03:52:20;1.20;99.90
19044;DHT22;9654;52.302;8.120;2024-03-07T03:54:47;1.20;99.90
19044;DHT22;9654;52.302;8.120;2024-03-07T03:57:15;1.20;99.90
19044;DHT22;9654;52.302;8.120;2024-03-07T03:59:44;1.20;99.90
19044;DHT22;9654;52.302;8.120;2024-03-07T04:02:11;1.20;99.90
19044;DHT22;9654;52.302;8.120;2024-03-07T04:04:40;1.10;99.90
19044;DHT22;9654;52.302;8.120;2024-03-07T04:07:08;1.10;99.90
19044;DHT22;9654;52.302;8.120;2024-03-07T04:09:35;1.10;99.90
19044;DHT22;9654;52.302;8.120;2024-03-07T04:12:02;1.10;99.90
19044;DHT22;9654;52.302;8.120;2024-03-07T04:14:31;1.10;99.90
19044;DHT22;9654;52.302;8.120;2024-03-07T04:16:58;1.10;99.90
19044;DHT22;9654;52.302;8.120;2024-03-07T04:19:25;1.10;99.90
19044;DHT22;9654;52.302;8.120;2024-03-07T04:21:54;1.10;99.90
19044;DHT22;9654;52.302;8.120;2024-03-07T04:24:21;1.10;99.90
19044;DHT22;9654;52.302;8.120;2024-03-07T04:26:48;1.00;99.90
19044;DHT22;9654;52.302;8.120;2024-03-07T04:29:15;1.00;99.90
19044;DHT22;9654;52.302;8.120;2024-03-07T04:31:42;1.00;99.90
19044;DHT22;9654;52.302;8.120;2024-03-07T04:34:09;1.00;99.90
19044;DHT22;9654;52.302;8.120;2024-03-07T04:36:36;1.00;99.90
19044;DHT22;9654;52.302;8.120;2024-03-07T04:39:04;1.00;99.90
19044;DHT22;9654;52.302;8.120;2024-03-07T04:41:35;0.90;99.90
19044;DHT22;9654;52.302;8.120;2024-03-07T04:44:02;0.90;99.90
19044;DHT22;9654;52.302;8.120;2024-03-07T04:46:30;0.90;99.90
19044;DHT22;9654;52.302;8.120;2024-03-07T04:48:59;0.90;99.90
19044;DHT22;9654;52.302;8.120;2024-03-07T04:51:26;0.90;99.90
19044;DHT22;9654;52.302;8.120;2024-03-07T04:53:53;0.80;99.90
19044;DHT22;9654;52.302;8.120;2024-03-07T04:56:21;0.80;99.90
19044;DHT22;9654;52.302;8.120;2024-03-07T04:58:48;0.80;99.90
19044;DHT22;9654;52.302;8.120;2024-03-07T05:01:15;0.80;99.90
19044;DHT22;9654;52.302;8.120;2024-03-07T05:03:42;0.80;99.90
19044;DHT22;9654;52.302;8.120;2024-03-07T05:06:09;0.80;99.90
19044;DHT22;9654;52.302;8.120;2024-03-07T05:08:36;0.80;99.90
19044;DHT22;9654;52.302;8.120;2024-03-07T05:11:03;0.80;99.90
19044;DHT22;9654;52.302;8.120;2024-03-07T05:13:31;0.70;99.90
19044;DHT22;9654;52.302;8.120;2024-03-07T05:15:58;0.80;99.90
19044;DHT22;9654;52.302;8.120;2024-03-07T05:18:25;0.70;99.90
19044;DHT22;9654;52.302;8.120;2024-03-07T05:20:52;0.70;99.90
19044;DHT22;9654;52.302;8.120;2024-03-07T05:23:20;0.70;99.90
19044;DHT22;9654;52.302;8.120;2024-03-07T05:25:47;0.70;99.90
19044;DHT22;9654;52.302;8.120;2024-03-07T05:28:15;0.70;99.90
19044;DHT22;9654;52.302;8.120;2024-03-07T05:30:43;0.70;99.90
19044;DHT22;9654;52.302;8.120;2024-03-07T05:33:10;0.70;99.90
19044;DHT22;9654;52.302;8.120;2024-03-07T05:35:37;0.60;99.90
19044;DHT22;9654;52.302;8.120;2024-03-07T05:38:03;0.60;99.90
19044;DHT22;9654;52.302;8.120;2024-03-07T05:40:31;0.60;99.90
19044;DHT22;9654;52.302;8.120;2024-03-07T05:42:58;0.60;99.90
19044;DHT22;9654;52.302;8.120;2024-03-07T05:45:25;0.60;99.90
19044;DHT22;9654;52.302;8.120;2024-03-07T05:47:53;0.60;99.90
19044;DHT22;9654;52.302;8.120;2024-03-07T05:50:20;0.70;99.90
19044;DHT22;9654;52.302;8.120;2024-03-07T05:52:47;0.70;99.90
19044;DHT22;9654;52.302;8.120;2024-03-07T05:55:15;0.70;99.90
19044;DHT22;9654;52.302;8.120;2024-03-07T05:57:44;0.70;99.90
19044;DHT22;9654;52.302;8.120;2024-03-07T06:00:12;0.80;99.90
19044;DHT22;9654;52.302;8.120;2024-03-07T06:02:41;0.80;99.90
19044;DHT22;9654;52.302;8.120;2024-03-07T06:05:09;0.80;99.90
19044;DHT22;9654;52.302;8.120;2024-03-07T06:07:41;0.90;99.90
19044;DHT22;9654;52.302;8.120;2024-03-07T06:10:08;0.90;99.90
19044;DHT22;9654;52.302;8.120;2024-03-07T06:12:36;0.90;99.90
19044;DHT22;9654;52.302;8.120;2024-03-07T06:15:06;0.90;99.90
19044;DHT22;9654;52.302;8.120;2024-03-07T06:17:34;0.90;99.90
19044;DHT22;9654;52.302;8.120;2024-03-07T06:20:01;0.90;99.90
19044;DHT22;9654;52.302;8.120;2024-03-07T06:22:29;0.90;99.90
19044;DHT22;9654;52.302;8.120;2024-03-07T06:24:56;1.00;99.90
19044;DHT22;9654;52.302;8.120;2024-03-07T06:27:29;1.00;99.90
19044;DHT22;9654;52.302;8.120;2024-03-07T06:30:03;1.00;99.90
19044;DHT22;9654;52.302;8.120;2024-03-07T06:32:34;1.00;99.90
19044;DHT22;9654;52.302;8.120;2024-03-07T06:35:03;1.10;99.90
19044;DHT22;9654;52.302;8.120;2024-03-07T06:37:31;1.10;99.90
19044;DHT22;9654;52.302;8.120;2024-03-07T06:39:58;1.10;99.90
19044;DHT22;9654;52.302;8.120;2024-03-07T06:42:25;1.10;99.90
19044;DHT22;9654;52.302;8.120;2024-03-07T06:44:52;1.00;99.90
19044;DHT22;9654;52.302;8.120;2024-03-07T06:47:19;1.00;99.90
19044;DHT22;9654;52.302;8.120;2024-03-07T06:49:46;1.00;99.90
19044;DHT22;9654;52.302;8.120;2024-03-07T06:52:13;1.00;99.90
19044;DHT22;9654;52.302;8.120;2024-03-07T06:54:42;1.00;99.90
19044;DHT22;9654;52.302;8.120;2024-03-07T06:57:09;1.00;99.90
19044;DHT22;9654;52.302;8.120;2024-03-07T06:59:36;1.00;99.90
19044;DHT22;9654;52.302;8.120;2024-03-07T07:02:03;1.00;99.90
19044;DHT22;9654;52.302;8.120;2024-03-07T07:04:30;0.90;99.90
19044;DHT22;9654;52.302;8.120;2024-03-07T07:07:07;0.90;99.90
19044;DHT22;9654;52.302;8.120;2024-03-07T07:09:35;0.90;99.90
19044;DHT22;9654;52.302;8.120;2024-03-07T07:12:04;0.90;99.90
19044;DHT22;9654;52.302;8.120;2024-03-07T07:14:31;0.90;99.90
19044;DHT22;9654;52.302;8.120;2024-03-07T07:16:58;0.90;99.90
19044;DHT22;9654;52.302;8.120;2024-03-07T07:19:25;1.00;99.90
19044;DHT22;9654;52.302;8.120;2024-03-07T07:21:52;1.10;99.90
19044;DHT22;9654;52.302;8.120;2024-03-07T07:24:19;1.10;99.90
19044;DHT22;9654;52.302;8.120;2024-03-07T07:26:48;1.10;99.90
19044;DHT22;9654;52.302;8.120;2024-03-07T07:29:17;1.20;99.90
19044;DHT22;9654;52.302;8.120;2024-03-07T07:31:44;1.20;99.90
19044;DHT22;9654;52.302;8.120;2024-03-07T07:34:11;1.20;99.90
19044;DHT22;9654;52.302;8.120;2024-03-07T07:36:38;1.30;99.90
19044;DHT22;9654;52.302;8.120;2024-03-07T07:39:06;1.40;99.90
19044;DHT22;9654;52.302;8.120;2024-03-07T07:41:42;1.40;99.90
19044;DHT22;9654;52.302;8.120;2024-03-07T07:44:09;1.40;99.90
19044;DHT22;9654;52.302;8.120;2024-03-07T07:46:37;1.40;99.90
19044;DHT22;9654;52.302;8.120;2024-03-07T07:49:06;1.50;99.90
19044;DHT22;9654;52.302;8.120;2024-03-07T07:51:32;1.50;99.90
19044;DHT22;9654;52.302;8.120;2024-03-07T07:53:59;1.50;99.90
19044;DHT22;9654;52.302;8.120;2024-03-07T07:56:27;1.50;99.90
19044;DHT22;9654;52.302;8.120;2024-03-07T07:58:55;1.50;99.90
19044;DHT22;9654;52.302;8.120;2024-03-07T08:01:22;1.60;99.90
19044;DHT22;9654;52.302;8.120;2024-03-07T08:03:50;1.60;99.90
19044;DHT22;9654;52.302;8.120;2024-03-07T08:06:17;1.60;99.90
19044;DHT22;9654;52.302;8.120;2024-03-07T08:08:44;1.70;99.90
19044;DHT22;9654;52.302;8.120;2024-03-07T08:11:11;1.70;99.90
19044;DHT22;9654;52.302;8.120;2024-03-07T08:13:40;1.70;99.90
19044;DHT22;9654;52.302;8.120;2024-03-07T08:16:07;1.80;99.90
19044;DHT22;9654;52.302;8.120;2024-03-07T08:18:34;1.80;99.90
19044;DHT22;9654;52.302;8.120;2024-03-07T08:21:02;1.90;99.90
19044;DHT22;9654;52.302;8.120;2024-03-07T08:23:30;1.90;99.90
19044;DHT22;9654;52.302;8.120;2024-03-07T08:25:57;2.00;99.90
19044;DHT22;9654;52.302;8.120;2024-03-07T08:28:24;2.10;99.90
19044;DHT22;9654;52.302;8.120;2024-03-07T08:30:50;2.10;99.90
19044;DHT22;9654;52.302;8.120;2024-03-07T08:33:17;2.10;99.90
19044;DHT22;9654;52.302;8.120;2024-03-07T08:35:47;2.10;99.90
19044;DHT22;9654;52.302;8.120;2024-03-07T08:38:16;2.20;99.90
19044;DHT22;9654;52.302;8.120;2024-03-07T08:40:43;2.20;99.90
19044;DHT22;9654;52.302;8.120;2024-03-07T08:43:10;2.20;99.90
19044;DHT22;9654;52.302;8.120;2024-03-07T08:45:37;2.20;99.90
19044;DHT22;9654;52.302;8.120;2024-03-07T08:48:05;2.20;99.90
19044;DHT22;9654;52.302;8.120;2024-03-07T08:50:34;2.30;99.90
19044;DHT22;9654;52.302;8.120;2024-03-07T08:53:03;2.30;99.90
19044;DHT22;9654;52.302;8.120;2024-03-07T08:55:32;2.30;99.90
19044;DHT22;9654;52.302;8.120;2024-03-07T08:58:01;2.40;99.90
19044;DHT22;9654;52.302;8.120;2024-03-07T09:00:28;2.40;99.90
19044;DHT22;9654;52.302;8.120;2024-03-07T09:02:57;2.30;99.90
19044;DHT22;9654;52.302;8.120;2024-03-07T09:05:24;2.30;99.90
19044;DHT22;9654;52.302;8.120;2024-03-07T09:07:52;2.30;99.90
19044;DHT22;9654;52.302;8.120;2024-03-07T09:10:19;2.40;99.90
19044;DHT22;9654;52.302;8.120;2024-03-07T09:12:50;2.30;99.90
19044;DHT22;9654;52.302;8.120;2024-03-07T09:15:18;2.30;99.90
19044;DHT22;9654;52.302;8.120;2024-03-07T09:17:47;2.30;99.90
19044;DHT22;9654;52.302;8.120;2024-03-07T09:20:14;2.40;99.90
19044;DHT22;9654;52.302;8.120;2024-03-07T09:22:41;2.50;99.90
19044;DHT22;9654;52.302;8.120;2024-03-07T09:25:08;2.60;99.90
19044;DHT22;9654;52.302;8.120;2024-03-07T09:27:36;2.60;99.90
19044;DHT22;9654;52.302;8.120;2024-03-07T09:30:05;2.80;99.90
19044;DHT22;9654;52.302;8.120;2024-03-07T09:32:38;2.80;99.90
19044;DHT22;9654;52.302;8.120;2024-03-07T09:35:06;2.90;99.90
19044;DHT22;9654;52.302;8.120;2024-03-07T09:37:38;2.90;99.90
19044;DHT22;9654;52.302;8.120;2024-03-07T09:40:07;3.00;99.90
19044;DHT22;9654;52.302;8.120;2024-03-07T09:42:34;3.00;99.90
19044;DHT22;9654;52.302;8.120;2024-03-07T09:45:06;2.90;99.90
19044;DHT22;9654;52.302;8.120;2024-03-07T09:47:34;2.90;99.90
19044;DHT22;9654;52.302;8.120;2024-03-07T09:50:01;2.90;99.90
19044;DHT22;9654;52.302;8.120;2024-03-07T09:52:31;3.00;99.90
19044;DHT22;9654;52.302;8.120;2024-03-07T09:54:58;3.00;99.90
19044;DHT22;9654;52.302;8.120;2024-03-07T09:57:26;3.00;99.90
19044;DHT22;9654;52.302;8.120;2024-03-07T09:59:53;2.90;99.90
19044;DHT22;9654;52.302;8.120;2024-03-07T10:02:23;2.90;99.90
19044;DHT22;9654;52.302;8.120;2024-03-07T10:04:51;3.00;99.90
19044;DHT22;9654;52.302;8.120;2024-03-07T10:07:20;3.00;99.90
19044;DHT22;9654;52.302;8.120;2024-03-07T10:09:47;3.00;99.90
19044;DHT22;9654;52.302;8.120;2024-03-07T10:12:14;3.00;99.90
19044;DHT22;9654;52.302;8.120;2024-03-07T10:14:48;3.10;99.90
19044;DHT22;9654;52.302;8.120;2024-03-07T10:17:16;3.10;99.90
19044;DHT22;9654;52.302;8.120;2024-03-07T10:19:47;3.20;99.90
19044;DHT22;9654;52.302;8.120;2024-03-07T10:22:16;3.30;99.90
19044;DHT22;9654;52.302;8.120;2024-03-07T10:24:49;3.40;99.90
19044;DHT22;9654;52.302;8.120;2024-03-07T10:27:18;3.30;99.90
19044;DHT22;9654;52.302;8.120;2024-03-07T10:29:46;3.30;99.90
19044;DHT22;9654;52.302;8.120;2024-03-07T10:32:19;3.40;99.90
19044;DHT22;9654;52.302;8.120;2024-03-07T10:34:47;3.60;99.90
19044;DHT22;9654;52.302;8.120;2024-03-07T10:37:16;3.60;99.90
19044;DHT22;9654;52.302;8.120;2024-03-07T10:39:44;3.70;99.90
19044;DHT22;9654;52.302;8.120;2024-03-07T10:42:14;3.60;99.90
19044;DHT22;9654;52.302;8.120;2024-03-07T10:44:43;3.70;99.90
19044;DHT22;9654;52.302;8.120;2024-03-07T10:47:15;3.70;99.90
19044;DHT22;9654;52.302;8.120;2024-03-07T10:49:57;3.60;99.90
19044;DHT22;9654;52.302;8.120;2024-03-07T10:52:29;3.60;99.90
19044;DHT22;9654;52.302;8.120;2024-03-07T10:55:08;3.60;99.90
19044;DHT22;9654;52.302;8.120;2024-03-07T10:57:49;3.60;99.90
19044;DHT22;9654;52.302;8.120;2024-03-07T11:00:19;3.70;99.90
19044;DHT22;9654;52.302;8.120;2024-03-07T11:03:01;3.70;99.90
19044;DHT22;9654;52.302;8.120;2024-03-07T11:05:34;3.80;99.90
19044;DHT22;9654;52.302;8.120;2024-03-07T11:08:01;3.80;99.90
19044;DHT22;9654;52.302;8.120;2024-03-07T11:10:30;3.90;99.90
19044;DHT22;9654;52.302;8.120;2024-03-07T11:12:58;3.90;99.90
19044;DHT22;9654;52.302;8.120;2024-03-07T11:15:26;4.00;99.90
19044;DHT22;9654;52.302;8.120;2024-03-07T11:17:55;4.00;99.90
19044;DHT22;9654;52.302;8.120;2024-03-07T11:20:22;4.10;99.90
19044;DHT22;9654;52.302;8.120;2024-03-07T11:22:51;4.10;99.90
19044;DHT22;9654;52.302;8.120;2024-03-07T11:25:19;4.20;99.90
19044;DHT22;9654;52.302;8.120;2024-03-07T11:27:55;4.20;99.90
19044;DHT22;9654;52.302;8.120;2024-03-07T11:30:23;4.30;99.90
19044;DHT22;9654;52.302;8.120;2024-03-07T11:32:50;4.30;99.90
19044;DHT22;9654;52.302;8.120;2024-03-07T11:35:19;4.30;99.90
19044;DHT22;9654;52.302;8.120;2024-03-07T11:37:56;4.30;99.90
19044;DHT22;9654;52.302;8.120;2024-03-07T11:40:46;4.30;99.90
19044;DHT22;9654;52.302;8.120;2024-03-07T11:43:14;4.40;99.90
19044;DHT22;9654;52.302;8.120;2024-03-07T11:45:41;4.40;99.90
19044;DHT22;9654;52.302;8.120;2024-03-07T11:48:11;4.50;99.90
19044;DHT22;9654;52.302;8.120;2024-03-07T11:50:40;4.40;99.90
19044;DHT22;9654;52.302;8.120;2024-03-07T11:53:10;4.50;99.90
19044;DHT22;9654;52.302;8.120;2024-03-07T11:55:37;4.60;99.90
19044;DHT22;9654;52.302;8.120;2024-03-07T11:58:10;4.60;99.90
19044;DHT22;9654;52.302;8.120;2024-03-07T12:00:38;4.60;99.90
19044;DHT22;9654;52.302;8.120;2024-03-07T12:03:08;4.60;99.90
19044;DHT22;9654;52.302;8.120;2024-03-07T12:05:41;4.60;99.90
19044;DHT22;9654;52.302;8.120;2024-03-07T12:08:10;4.40;99.90
19044;DHT22;9654;52.302;8.120;2024-03-07T12:10:38;4.40;99.90
19044;DHT22;9654;52.302;8.120;2024-03-07T12:13:06;4.40;99.90
19044;DHT22;9654;52.302;8.120;2024-03-07T12:15:33;4.40;99.90
19044;DHT22;9654;52.302;8.120;2024-03-07T12:18:02;4.50;99.90
19044;DHT22;9654;52.302;8.120;2024-03-07T12:20:35;4.40;99.90
19044;DHT22;9654;52.302;8.120;2024-03-07T12:23:02;4.40;99.90
19044;DHT22;9654;52.302;8.120;2024-03-07T12:25:32;4.40;99.90
19044;DHT22;9654;52.302;8.120;2024-03-07T12:28:00;4.40;99.90
19044;DHT22;9654;52.302;8.120;2024-03-07T12:30:32;4.40;99.90
19044;DHT22;9654;52.302;8.120;2024-03-07T12:33:00;4.40;99.90
19044;DHT22;9654;52.302;8.120;2024-03-07T12:35:29;4.50;99.90
19044;DHT22;9654;52.302;8.120;2024-03-07T12:37:58;4.50;99.90
19044;DHT22;9654;52.302;8.120;2024-03-07T12:40:25;4.60;99.90
19044;DHT22;9654;52.302;8.120;2024-03-07T12:42:56;4.70;99.90
19044;DHT22;9654;52.302;8.120;2024-03-07T12:45:24;4.60;99.90
19044;DHT22;9654;52.302;8.120;2024-03-07T12:47:53;4.70;99.90
19044;DHT22;9654;52.302;8.120;2024-03-07T12:50:22;4.70;99.90
19044;DHT22;9654;52.302;8.120;2024-03-07T12:52:49;4.70;99.90
19044;DHT22;9654;52.302;8.120;2024-03-07T12:55:17;4.70;99.90
19044;DHT22;9654;52.302;8.120;2024-03-07T12:57:47;4.80;99.90
19044;DHT22;9654;52.302;8.120;2024-03-07T13:00:17;4.90;99.90
19044;DHT22;9654;52.302;8.120;2024-03-07T13:02:49;4.90;99.90
19044;DHT22;9654;52.302;8.120;2024-03-07T13:05:16;5.00;99.90
19044;DHT22;9654;52.302;8.120;2024-03-07T13:07:47;5.10;99.90
19044;DHT22;9654;52.302;8.120;2024-03-07T13:10:14;5.20;99.90
19044;DHT22;9654;52.302;8.120;2024-03-07T13:12:44;5.10;99.90
19044;DHT22;9654;52.302;8.120;2024-03-07T13:15:12;5.20;99.90
19044;DHT22;9654;52.302;8.120;2024-03-07T13:17:40;5.20;99.90
19044;DHT22;9654;52.302;8.120;2024-03-07T13:20:09;5.40;99.90
19044;DHT22;9654;52.302;8.120;2024-03-07T13:22:41;5.60;99.90
19044;DHT22;9654;52.302;8.120;2024-03-07T13:25:10;5.80;99.90
19044;DHT22;9654;52.302;8.120;2024-03-07T13:27:43;6.10;99.90
19044;DHT22;9654;52.302;8.120;2024-03-07T13:30:14;6.70;99.90
19044;DHT22;9654;52.302;8.120;2024-03-07T13:32:51;7.10;99.90
19044;DHT22;9654;52.302;8.120;2024-03-07T13:35:21;7.30;99.90
19044;DHT22;9654;52.302;8.120;2024-03-07T13:37:49;7.70;99.90
19044;DHT22;9654;52.302;8.120;2024-03-07T13:40:16;7.80;99.90
19044;DHT22;9654;52.302;8.120;2024-03-07T13:42:51;7.70;99.90
19044;DHT22;9654;52.302;8.120;2024-03-07T13:45:23;7.50;99.90
19044;DHT22;9654;52.302;8.120;2024-03-07T13:47:54;7.20;99.90
19044;DHT22;9654;52.302;8.120;2024-03-07T13:50:23;6.90;99.90
19044;DHT22;9654;52.302;8.120;2024-03-07T13:52:52;6.60;99.90
19044;DHT22;9654;52.302;8.120;2024-03-07T13:55:50;6.40;99.90
19044;DHT22;9654;52.302;8.120;2024-03-07T13:58:40;6.40;99.90
19044;DHT22;9654;52.302;8.120;2024-03-07T14:01:33;6.60;99.90
19044;DHT22;9654;52.302;8.120;2024-03-07T14:04:38;6.80;99.90
19044;DHT22;9654;52.302;8.120;2024-03-07T14:07:22;6.80;99.90
19044;DHT22;9654;52.302;8.120;2024-03-07T14:10:13;6.90;99.90
19044;DHT22;9654;52.302;8.120;2024-03-07T14:12:58;6.90;99.90
19044;DHT22;9654;52.302;8.120;2024-03-07T14:16:02;6.90;99.90
19044;DHT22;9654;52.302;8.120;2024-03-07T14:22:13;6.90;99.90
19044;DHT22;9654;52.302;8.120;2024-03-07T14:25:19;6.70;99.90
19044;DHT22;9654;52.302;8.120;2024-03-07T14:27:58;6.60;99.90
19044;DHT22;9654;52.302;8.120;2024-03-07T14:30:41;6.50;99.90
19044;DHT22;9654;52.302;8.120;2024-03-07T14:33:09;6.50;99.90
19044;DHT22;9654;52.302;8.120;2024-03-07T14:35:58;6.40;99.90
19044;DHT22;9654;52.302;8.120;2024-03-07T14:38:29;6.60;99.90
19044;DHT22;9654;52.302;8.120;2024-03-07T14:40:57;6.60;99.90
19044;DHT22;9654;52.302;8.120;2024-03-07T14:43:24;6.60;99.90
19044;DHT22;9654;52.302;8.120;2024-03-07T14:45:51;6.50;99.90
19044;DHT22;9654;52.302;8.120;2024-03-07T14:48:21;6.50;99.90
19044;DHT22;9654;52.302;8.120;2024-03-07T14:50:48;6.60;99.90
19044;DHT22;9654;52.302;8.120;2024-03-07T14:53:16;6.50;99.90
19044;DHT22;9654;52.302;8.120;2024-03-07T14:55:46;6.50;99.90
19044;DHT22;9654;52.302;8.120;2024-03-07T14:58:13;6.50;99.90
19044;DHT22;9654;52.302;8.120;2024-03-07T15:00:42;6.40;99.90
19044;DHT22;9654;52.302;8.120;2024-03-07T15:03:11;6.30;99.90
19044;DHT22;9654;52.302;8.120;2024-03-07T15:05:39;6.40;99.90
19044;DHT22;9654;52.302;8.120;2024-03-07T15:08:07;6.40;99.90
19044;DHT22;9654;52.302;8.120;2024-03-07T15:10:36;6.40;99.90
19044;DHT22;9654;52.302;8.120;2024-03-07T15:13:06;6.50;99.90
19044;DHT22;9654;52.302;8.120;2024-03-07T15:15:34;6.60;99.90
19044;DHT22;9654;52.302;8.120;2024-03-07T15:18:01;6.70;99.90
19044;DHT22;9654;52.302;8.120;2024-03-07T15:20:28;6.70;99.90
19044;DHT22;9654;52.302;8.120;2024-03-07T15:22:57;6.80;99.90
19044;DHT22;9654;52.302;8.120;2024-03-07T15:25:25;6.80;99.90
19044;DHT22;9654;52.302;8.120;2024-03-07T15:27:53;6.80;99.90
19044;DHT22;9654;52.302;8.120;2024-03-07T15:30:24;6.80;99.90
19044;DHT22;9654;52.302;8.120;2024-03-07T15:32:59;6.80;99.90
19044;DHT22;9654;52.302;8.120;2024-03-07T15:35:29;6.90;99.90
19044;DHT22;9654;52.302;8.120;2024-03-07T15:37:58;6.80;99.90
19044;DHT22;9654;52.302;8.120;2024-03-07T15:43:00;6.70;99.90
19044;DHT22;9654;52.302;8.120;2024-03-07T15:45:29;6.50;99.90
19044;DHT22;9654;52.302;8.120;2024-03-07T15:47:57;6.40;99.90
19044;DHT22;9654;52.302;8.120;2024-03-07T15:50:26;6.40;99.90
19044;DHT22;9654;52.302;8.120;2024-03-07T15:52:55;6.40;99.90
19044;DHT22;9654;52.302;8.120;2024-03-07T15:55:24;6.40;99.90
19044;DHT22;9654;52.302;8.120;2024-03-07T15:57:52;6.40;99.90
19044;DHT22;9654;52.302;8.120;2024-03-07T16:00:21;6.40;99.90
19044;DHT22;9654;52.302;8.120;2024-03-07T16:02:54;6.30;99.90
19044;DHT22;9654;52.302;8.120;2024-03-07T16:05:23;6.30;99.90
19044;DHT22;9654;52.302;8.120;2024-03-07T16:07:51;6.20;99.90
19044;DHT22;9654;52.302;8.120;2024-03-07T16:10:18;6.20;99.90
19044;DHT22;9654;52.302;8.120;2024-03-07T16:12:45;6.10;99.90
19044;DHT22;9654;52.302;8.120;2024-03-07T16:15:13;6.10;99.90
19044;DHT22;9654;52.302;8.120;2024-03-07T16:17:41;6.10;99.90
19044;DHT22;9654;52.302;8.120;2024-03-07T16:20:12;6.20;99.90